East Farmington, Wisconsin
Current Conditions -  °F | °C
As of 12:35 PM on Thursday 30 Oct 2014 (Local Time) from KOEO Reporting Station
Overcast Overcast  
Wind Chill: 42°   Ceiling: 5000
Heat Index: 45°   Visibility: 10mi
Dew Point: 35°   Wind: 6mph
Humidity: 69%   Direction: 360°N
Pressure: 30.13"   Gusts: NA
Location:  45.3193°N, 92.6951°W
Report Text: KOEO 301735Z AUTO 36005KT 10SM OVC050 07/02 A3013 RMK AO2 T00730019
Loading
Personal Weather Stations






























Interactive Weather Map
Tropical Storm Tracking
New forecast layout! Learn more

10-Day Weather Forecast

Advertisements
Track Severe Weather on mobile